Time;durP1;ratioP1;P1;durP2;ratioP2;P2;SDS_P1;SDS_P2;PMS_P1;PMS_P2;Temp;Humidity;BMP_temperature;BMP_pressure;BME280_temperature;BME280_humidity;BME280_pressure;Samples;Min_cycle;Max_cycle;Signal;HPM_P1;HPM_P2
2023/05/22 00:01:41;;;;;;;7.07;3.80;;;;;;;;;;5033330;28;20045;-87
2023/05/22 00:04:07;;;;;;;6.85;4.13;;;;;;;;;;5037783;28;20033;-87
2023/05/22 00:06:32;;;;;;;6.30;4.10;;;;;;;;;;5032831;28;20128;-87
2023/05/22 00:08:58;;;;;;;6.85;4.40;;;;;;;;;;5034196;28;20033;-87
2023/05/22 00:11:24;;;;;;;5.57;4.10;;;;;;;;;;5049151;28;20445;-87
2023/05/22 00:13:50;;;;;;;6.93;3.90;;;;;;;;;;5022278;28;20017;-87
2023/05/22 00:16:16;;;;;;;5.93;3.88;;;;;;;;;;5033158;28;20041;-87
2023/05/22 00:18:41;;;;;;;4.80;3.78;;;;;;;;;;5038374;28;20029;-87
2023/05/22 00:21:10;;;;;;;5.45;4.03;;;;;;;;;;5035727;28;20065;-87
2023/05/22 00:23:36;;;;;;;6.25;4.15;;;;;;;;;;5032659;28;20453;-88
2023/05/22 00:26:01;;;;;;;4.85;3.88;;;;;;;;;;5047060;28;20037;-87
2023/05/22 00:28:27;;;;;;;8.48;4.35;;;;;;;;;;5032928;28;20034;-87
2023/05/22 00:30:53;;;;;;;6.47;4.57;;;;;;;;;;5032793;28;20040;-87
2023/05/22 00:33:18;;;;;;;6.82;4.35;;;;;;;;;;5032629;28;20069;-87
2023/05/22 00:35:44;;;;;;;6.43;4.30;;;;;;;;;;5033740;28;20048;-85
2023/05/22 00:38:27;;;;;;;5.72;4.03;;;;;;;;;;5032989;28;20044;-87
2023/05/22 00:40:53;;;;;;;6.88;4.53;;;;;;;;;;5043461;28;20030;-87
2023/05/22 00:43:18;;;;;;;6.60;4.38;;;;;;;;;;5033124;28;20040;-86
2023/05/22 00:45:44;;;;;;;6.82;4.60;;;;;;;;;;5048602;28;20029;-85
2023/05/22 00:48:11;;;;;;;5.40;3.97;;;;;;;;;;5029078;28;20407;-87
2023/05/22 00:50:37;;;;;;;6.05;4.03;;;;;;;;;;5042108;28;20033;-87
2023/05/22 00:53:02;;;;;;;6.88;4.10;;;;;;;;;;5034404;28;20048;-87
2023/05/22 00:55:28;;;;;;;6.60;4.45;;;;;;;;;;5032776;28;20037;-86
2023/05/22 00:57:54;;;;;;;5.78;4.03;;;;;;;;;;5047928;28;20055;-87
2023/05/22 01:00:20;;;;;;;5.53;4.05;;;;;;;;;;5032565;28;20033;-87
2023/05/22 01:02:45;;;;;;;5.93;4.10;;;;;;;;;;5029325;28;20057;-87
2023/05/22 01:05:11;;;;;;;7.82;4.13;;;;;;;;;;5043710;28;20079;-87
2023/05/22 01:07:37;;;;;;;7.63;4.00;;;;;;;;;;5043927;28;20040;-87
2023/05/22 01:10:05;;;;;;;8.43;4.10;;;;;;;;;;5025941;28;20037;-87
2023/05/22 01:12:53;;;;;;;6.55;4.10;;;;;;;;;;5036721;28;20060;-86
2023/05/22 01:15:39;;;;;;;5.15;4.00;;;;;;;;;;5035527;28;20410;-87
2023/05/22 01:18:11;;;;;;;7.03;4.00;;;;;;;;;;5034365;28;20499;-87
2023/05/22 01:20:39;;;;;;;6.95;3.95;;;;;;;;;;5018239;28;20045;-87
2023/05/22 01:23:23;;;;;;;6.32;4.18;;;;;;;;;;5023820;28;20415;-87
2023/05/22 01:26:30;;;;;;;7.03;4.03;;;;;;;;;;5021327;28;20034;-86
2023/05/22 01:29:17;;;;;;;5.10;3.70;;;;;;;;;;5025207;28;20045;-87
2023/05/22 01:31:45;;;;;;;6.63;4.03;;;;;;;;;;5035450;28;20481;-86
2023/05/22 01:34:12;;;;;;;5.47;4.05;;;;;;;;;;5050462;28;20429;-87
2023/05/22 01:36:40;;;;;;;7.22;4.18;;;;;;;;;;5029584;28;20033;-86
2023/05/22 01:39:06;;;;;;;4.95;3.92;;;;;;;;;;5044409;28;20029;-87
2023/05/22 01:41:35;;;;;;;7.20;4.18;;;;;;;;;;5042476;28;20491;-87
2023/05/22 01:44:02;;;;;;;5.38;4.22;;;;;;;;;;5036916;28;20030;-87
2023/05/22 01:46:29;;;;;;;6.18;4.03;;;;;;;;;;5029054;28;20436;-87
2023/05/22 01:48:55;;;;;;;6.38;4.15;;;;;;;;;;5034561;28;20398;-86
2023/05/22 01:51:55;;;;;;;6.70;3.97;;;;;;;;;;5047173;28;20479;-87
2023/05/22 01:54:41;;;;;;;6.95;4.20;;;;;;;;;;5033705;28;20124;-87
2023/05/22 01:57:12;;;;;;;6.38;3.88;;;;;;;;;;5033954;28;20519;-87
2023/05/22 01:59:48;;;;;;;5.75;3.88;;;;;;;;;;5017531;28;20044;-87
2023/05/22 02:02:18;;;;;;;6.07;4.25;;;;;;;;;;5030996;28;20586;-85
2023/05/22 02:04:58;;;;;;;8.73;4.40;;;;;;;;;;5035106;28;20040;-86
2023/05/22 02:07:24;;;;;;;6.57;3.92;;;;;;;;;;5049357;28;20037;-87
2023/05/22 02:09:53;;;;;;;7.13;4.15;;;;;;;;;;5029658;28;20037;-86
2023/05/22 02:12:19;;;;;;;7.97;4.50;;;;;;;;;;5024952;28;20029;-86
2023/05/22 02:14:45;;;;;;;6.88;4.10;;;;;;;;;;5022298;28;20060;-86
2023/05/22 02:17:11;;;;;;;7.70;4.57;;;;;;;;;;5037230;28;20041;-87
2023/05/22 02:19:36;;;;;;;5.63;4.18;;;;;;;;;;5044032;28;20032;-87
2023/05/22 02:22:02;;;;;;;4.95;4.18;;;;;;;;;;5032739;28;20402;-87
2023/05/22 02:24:31;;;;;;;6.22;4.25;;;;;;;;;;5048312;28;20113;-87
2023/05/22 02:26:57;;;;;;;6.72;4.20;;;;;;;;;;5043184;28;20036;-87
2023/05/22 02:29:23;;;;;;;6.60;4.30;;;;;;;;;;5041442;28;20048;-87
2023/05/22 02:31:49;;;;;;;5.45;4.00;;;;;;;;;;5021003;28;20037;-86
2023/05/22 02:34:15;;;;;;;5.82;4.15;;;;;;;;;;5035287;28;20025;-85
2023/05/22 02:36:41;;;;;;;8.77;4.80;;;;;;;;;;5034037;28;20515;-87
2023/05/22 02:39:07;;;;;;;8.57;5.10;;;;;;;;;;5016368;28;20034;-87
2023/05/22 02:41:33;;;;;;;8.77;4.60;;;;;;;;;;5014803;28;20041;-86
2023/05/22 02:43:58;;;;;;;5.93;4.43;;;;;;;;;;5025491;28;20040;-86
2023/05/22 02:46:24;;;;;;;6.70;4.20;;;;;;;;;;5023279;28;20026;-87
2023/05/22 02:48:49;;;;;;;6.90;4.18;;;;;;;;;;5037319;28;20045;-87
2023/05/22 02:51:17;;;;;;;6.32;4.25;;;;;;;;;;5000463;28;20491;-86
2023/05/22 02:53:42;;;;;;;6.57;4.18;;;;;;;;;;5033776;28;20040;-87
2023/05/22 02:56:11;;;;;;;5.50;4.15;;;;;;;;;;5034276;28;20036;-87
2023/05/22 02:58:37;;;;;;;5.47;4.20;;;;;;;;;;5016631;28;20049;-87
2023/05/22 03:01:05;;;;;;;6.93;4.20;;;;;;;;;;5017258;28;20136;-86
2023/05/22 03:03:32;;;;;;;6.57;4.40;;;;;;;;;;5016495;28;20495;-86
2023/05/22 03:06:00;;;;;;;6.03;4.07;;;;;;;;;;5034152;28;20029;-87
2023/05/22 03:08:30;;;;;;;7.03;3.75;;;;;;;;;;5046521;28;20037;-87
2023/05/22 03:10:57;;;;;;;6.60;4.03;;;;;;;;;;5051433;28;20159;-87
2023/05/22 03:13:23;;;;;;;6.10;4.10;;;;;;;;;;5029549;28;20052;-87
2023/05/22 03:15:50;;;;;;;5.78;4.13;;;;;;;;;;5034095;28;20065;-86
2023/05/22 03:18:16;;;;;;;7.28;4.25;;;;;;;;;;5023564;28;20034;-85
2023/05/22 03:20:42;;;;;;;9.18;4.13;;;;;;;;;;5020234;28;20056;-86
2023/05/22 03:23:07;;;;;;;7.57;4.65;;;;;;;;;;5016736;28;20456;-86
2023/05/22 03:25:33;;;;;;;6.50;4.25;;;;;;;;;;5015073;28;20033;-86
2023/05/22 03:27:59;;;;;;;7.20;4.25;;;;;;;;;;5015400;28;20121;-86
2023/05/22 03:30:28;;;;;;;11.05;4.70;;;;;;;;;;5025045;28;20502;-87
2023/05/22 03:33:15;;;;;;;8.55;4.28;;;;;;;;;;5021599;28;20400;-86
2023/05/22 03:35:43;;;;;;;7.45;4.50;;;;;;;;;;5021657;28;20099;-87
2023/05/22 03:38:10;;;;;;;6.40;4.20;;;;;;;;;;5017741;28;20059;-87
2023/05/22 03:40:35;;;;;;;8.30;4.40;;;;;;;;;;5032847;28;20449;-87
2023/05/22 03:43:01;;;;;;;6.40;4.28;;;;;;;;;;5014951;28;20060;-87
2023/05/22 03:45:27;;;;;;;8.50;4.57;;;;;;;;;;5011554;28;20498;-86
2023/05/22 03:47:53;;;;;;;7.05;4.40;;;;;;;;;;5015179;28;20448;-86
2023/05/22 03:50:18;;;;;;;6.75;4.18;;;;;;;;;;5032872;28;20033;-86
2023/05/22 03:52:44;;;;;;;7.90;4.47;;;;;;;;;;5034006;28;20037;-84
2023/05/22 03:55:09;;;;;;;7.10;4.03;;;;;;;;;;5032206;28;20104;-86
2023/05/22 03:57:35;;;;;;;7.85;4.40;;;;;;;;;;5043771;28;20086;-87
2023/05/22 04:00:08;;;;;;;5.43;4.00;;;;;;;;;;5049019;28;20036;-86
2023/05/22 04:02:38;;;;;;;7.57;4.40;;;;;;;;;;5045512;28;20029;-86
2023/05/22 04:05:06;;;;;;;7.15;4.13;;;;;;;;;;5024085;28;20048;-86
2023/05/22 04:07:31;;;;;;;7.22;4.03;;;;;;;;;;5030846;28;20414;-86
2023/05/22 04:09:58;;;;;;;4.82;4.07;;;;;;;;;;5014206;28;20033;-86
2023/05/22 04:12:23;;;;;;;5.68;4.15;;;;;;;;;;5031916;28;20029;-86
2023/05/22 04:14:49;;;;;;;6.43;4.50;;;;;;;;;;5004564;28;20036;-86
2023/05/22 04:17:14;;;;;;;7.32;4.43;;;;;;;;;;5047392;28;20033;-85
2023/05/22 04:19:40;;;;;;;6.18;4.18;;;;;;;;;;5043915;28;20414;-86
2023/05/22 04:22:05;;;;;;;6.10;4.30;;;;;;;;;;5023819;28;20044;-86
2023/05/22 04:24:31;;;;;;;6.28;4.38;;;;;;;;;;5019812;28;20034;-86
2023/05/22 04:26:59;;;;;;;7.13;4.45;;;;;;;;;;5034734;28;20551;-86
2023/05/22 04:29:25;;;;;;;5.78;4.38;;;;;;;;;;5033320;28;20091;-86
2023/05/22 04:31:53;;;;;;;8.45;4.50;;;;;;;;;;5031500;28;20033;-86
2023/05/22 04:34:19;;;;;;;6.80;4.18;;;;;;;;;;5014299;28;20029;-86
2023/05/22 04:36:45;;;;;;;9.02;5.00;;;;;;;;;;5014049;28;20087;-85
2023/05/22 04:39:12;;;;;;;7.50;4.38;;;;;;;;;;5014029;28;20419;-86
2023/05/22 04:41:39;;;;;;;6.70;4.40;;;;;;;;;;5033810;28;20041;-87
2023/05/22 04:44:05;;;;;;;6.70;4.10;;;;;;;;;;5037930;28;20066;-86
2023/05/22 04:46:33;;;;;;;7.47;4.55;;;;;;;;;;5036076;28;20462;-86
2023/05/22 04:49:00;;;;;;;7.18;4.50;;;;;;;;;;5017828;28;20029;-87
2023/05/22 04:51:27;;;;;;;6.50;4.43;;;;;;;;;;5018319;28;20033;-87
2023/05/22 04:53:54;;;;;;;8.05;4.13;;;;;;;;;;5036362;28;20029;-87
2023/05/22 04:56:21;;;;;;;8.10;4.28;;;;;;;;;;5035917;28;20025;-87
2023/05/22 04:58:49;;;;;;;8.35;4.28;;;;;;;;;;5036118;28;20064;-87
2023/05/22 05:01:18;;;;;;;6.85;4.25;;;;;;;;;;5037305;28;20127;-86
2023/05/22 05:03:44;;;;;;;5.70;4.25;;;;;;;;;;5027544;28;20037;-85
2023/05/22 05:06:11;;;;;;;7.68;4.25;;;;;;;;;;5033552;28;20111;-87
2023/05/22 05:08:37;;;;;;;7.38;4.25;;;;;;;;;;5031465;28;20137;-86
2023/05/22 05:11:03;;;;;;;8.75;4.50;;;;;;;;;;5022238;28;20140;-87
2023/05/22 05:13:28;;;;;;;8.55;4.57;;;;;;;;;;5035069;28;20499;-87
2023/05/22 05:15:54;;;;;;;7.10;4.38;;;;;;;;;;5017335;28;20040;-86
2023/05/22 05:18:20;;;;;;;6.30;4.65;;;;;;;;;;5018804;28;20034;-87
2023/05/22 05:20:46;;;;;;;10.55;4.40;;;;;;;;;;5017620;28;20593;-86
2023/05/22 05:23:12;;;;;;;7.15;4.20;;;;;;;;;;5017392;28;20033;-86
2023/05/22 05:25:37;;;;;;;7.75;4.50;;;;;;;;;;5000841;28;20067;-87
2023/05/22 05:28:09;;;;;;;6.53;4.55;;;;;;;;;;5026159;28;20048;-87
2023/05/22 05:30:39;;;;;;;7.55;4.60;;;;;;;;;;5021955;28;20044;-87
2023/05/22 05:33:30;;;;;;;6.47;4.20;;;;;;;;;;5014657;28;20486;-87
2023/05/22 05:36:15;;;;;;;6.38;4.35;;;;;;;;;;5035053;28;20462;-87
2023/05/22 05:38:42;;;;;;;9.35;4.47;;;;;;;;;;5016872;28;20133;-87
2023/05/22 05:41:08;;;;;;;7.60;4.40;;;;;;;;;;5021438;28;20120;-88
2023/05/22 05:43:36;;;;;;;14.23;4.50;;;;;;;;;;5025151;28;20034;-88
2023/05/22 05:46:05;;;;;;;10.50;4.60;;;;;;;;;;5018991;28;20029;-89
2023/05/22 05:48:31;;;;;;;6.10;4.40;;;;;;;;;;5016037;28;20041;-88
2023/05/22 05:50:57;;;;;;;5.50;4.07;;;;;;;;;;5015856;28;20049;-87
2023/05/22 05:53:27;;;;;;;6.18;4.18;;;;;;;;;;5033060;28;20033;-87
2023/05/22 05:55:57;;;;;;;6.07;3.88;;;;;;;;;;5031345;28;20036;-87
2023/05/22 05:58:22;;;;;;;9.85;4.30;;;;;;;;;;5029705;28;20041;-87
2023/05/22 06:01:01;;;;;;;9.52;4.30;;;;;;;;;;5016452;28;20030;-88
2023/05/22 06:03:27;;;;;;;8.05;3.75;;;;;;;;;;5018677;28;20041;-88
2023/05/22 06:06:10;;;;;;;4.95;3.92;;;;;;;;;;5018336;28;20041;-86
2023/05/22 06:08:54;;;;;;;6.00;3.78;;;;;;;;;;5045897;28;20464;-88
2023/05/22 06:11:26;;;;;;;5.55;4.00;;;;;;;;;;5033064;28;20037;-88
2023/05/22 06:13:53;;;;;;;6.57;4.10;;;;;;;;;;5029955;28;20661;-88
2023/05/22 06:16:19;;;;;;;6.93;3.78;;;;;;;;;;5025800;28;20041;-89
2023/05/22 06:18:45;;;;;;;7.28;3.88;;;;;;;;;;5041065;28;20525;-88
2023/05/22 06:21:11;;;;;;;6.88;3.95;;;;;;;;;;5032663;28;20093;-87
2023/05/22 06:23:36;;;;;;;7.05;4.00;;;;;;;;;;5016673;28;20045;-87
2023/05/22 06:26:03;;;;;;;9.98;4.93;;;;;;;;;;5028470;28;20122;-88
2023/05/22 06:28:30;;;;;;;7.68;4.30;;;;;;;;;;5030961;28;20024;-89
2023/05/22 06:30:56;;;;;;;9.00;3.80;;;;;;;;;;5032838;28;20051;-89
2023/05/22 06:33:22;;;;;;;8.25;3.83;;;;;;;;;;5026924;28;20029;-90
2023/05/22 06:35:50;;;;;;;6.55;4.07;;;;;;;;;;5023060;28;20522;-88
2023/05/22 06:38:15;;;;;;;6.63;4.05;;;;;;;;;;5018154;28;20041;-88
2023/05/22 06:40:42;;;;;;;9.68;4.20;;;;;;;;;;5015831;28;20462;-88
2023/05/22 06:43:13;;;;;;;6.07;3.97;;;;;;;;;;5013989;28;20498;-87
2023/05/22 06:45:52;;;;;;;5.10;3.88;;;;;;;;;;5014380;28;20534;-88
2023/05/22 06:48:34;;;;;;;6.07;3.65;;;;;;;;;;5040915;28;20045;-89
2023/05/22 06:51:07;;;;;;;5.82;3.80;;;;;;;;;;5005759;28;20127;-88
2023/05/22 06:53:34;;;;;;;5.03;3.35;;;;;;;;;;5010525;28;20030;-88
2023/05/22 06:56:01;;;;;;;8.07;3.97;;;;;;;;;;5015673;28;20025;-88
2023/05/22 06:58:39;;;;;;;5.68;3.72;;;;;;;;;;5025600;28;20037;-88
2023/05/22 07:01:05;;;;;;;7.30;3.80;;;;;;;;;;5019500;28;20044;-89
2023/05/22 07:03:38;;;;;;;7.35;3.80;;;;;;;;;;5015596;28;20050;-88
2023/05/22 07:06:23;;;;;;;5.38;3.58;;;;;;;;;;5043401;28;20051;-87
2023/05/22 07:08:50;;;;;;;6.95;3.80;;;;;;;;;;5018923;28;20040;-89
2023/05/22 07:11:16;;;;;;;7.35;3.70;;;;;;;;;;5046307;28;20029;-86
2023/05/22 07:13:41;;;;;;;5.90;3.80;;;;;;;;;;5033659;28;20445;-86
2023/05/22 07:16:07;;;;;;;5.88;3.70;;;;;;;;;;5030571;28;20033;-86
2023/05/22 07:18:33;;;;;;;8.50;3.85;;;;;;;;;;5030787;28;20026;-87
2023/05/22 07:20:59;;;;;;;5.40;3.60;;;;;;;;;;5030079;28;20041;-87
2023/05/22 07:23:25;;;;;;;5.60;3.80;;;;;;;;;;5034568;28;20037;-88
2023/05/22 07:25:50;;;;;;;4.97;3.70;;;;;;;;;;5035028;28;20052;-87
2023/05/22 07:28:19;;;;;;;7.40;3.90;;;;;;;;;;5031982;28;20039;-87
2023/05/22 07:30:51;;;;;;;6.45;3.92;;;;;;;;;;5039939;28;20064;-87
2023/05/22 07:33:17;;;;;;;5.05;3.53;;;;;;;;;;5045054;28;20047;-87
2023/05/22 07:35:44;;;;;;;7.82;4.20;;;;;;;;;;5045205;28;20069;-88
2023/05/22 07:38:10;;;;;;;7.60;3.92;;;;;;;;;;5041684;28;20029;-89
2023/05/22 07:40:37;;;;;;;5.65;3.60;;;;;;;;;;5038267;28;20049;-88
2023/05/22 07:43:02;;;;;;;8.52;3.95;;;;;;;;;;5036752;28;20029;-89
2023/05/22 07:45:29;;;;;;;8.05;3.83;;;;;;;;;;5027667;28;20049;-89
2023/05/22 07:47:57;;;;;;;4.38;3.70;;;;;;;;;;5024941;28;20034;-88
2023/05/22 07:50:25;;;;;;;7.85;3.80;;;;;;;;;;5025720;28;20040;-90
2023/05/22 07:52:52;;;;;;;7.40;3.80;;;;;;;;;;5036107;28;20500;-88
2023/05/22 07:55:18;;;;;;;4.63;3.30;;;;;;;;;;5045769;28;20076;-90
2023/05/22 07:57:43;;;;;;;6.78;3.60;;;;;;;;;;5013838;28;20036;-90
2023/05/22 08:00:23;;;;;;;6.07;3.45;;;;;;;;;;5017670;28;20041;-89
2023/05/22 08:02:49;;;;;;;6.13;3.53;;;;;;;;;;5032944;28;20084;-90
2023/05/22 08:05:14;;;;;;;8.48;3.53;;;;;;;;;;5036684;28;20115;-89
2023/05/22 08:07:40;;;;;;;4.70;3.47;;;;;;;;;;5030529;28;20036;-88
2023/05/22 08:10:12;;;;;;;31.90;4.80;;;;;;;;;;5046771;28;20052;-87
2023/05/22 08:12:38;;;;;;;7.03;3.30;;;;;;;;;;5052842;28;20041;-87
2023/05/22 08:15:04;;;;;;;5.53;3.65;;;;;;;;;;5049024;28;20076;-88
2023/05/22 08:17:29;;;;;;;20.85;3.90;;;;;;;;;;5042591;28;20513;-87
2023/05/22 08:19:55;;;;;;;6.32;3.35;;;;;;;;;;5052521;28;20115;-88
2023/05/22 08:22:20;;;;;;;10.63;3.50;;;;;;;;;;5060753;28;20049;-89
2023/05/22 08:24:46;;;;;;;5.82;3.10;;;;;;;;;;5039435;28;20596;-89
2023/05/22 08:27:11;;;;;;;5.32;3.40;;;;;;;;;;5048645;28;20037;-88
2023/05/22 08:29:37;;;;;;;47.83;5.63;;;;;;;;;;5043548;28;21038;-89
2023/05/22 08:32:03;;;;;;;4.90;3.30;;;;;;;;;;5043500;28;20191;-88
2023/05/22 08:34:28;;;;;;;5.07;3.53;;;;;;;;;;5043150;28;20126;-87
2023/05/22 08:36:54;;;;;;;6.00;3.58;;;;;;;;;;5049438;28;20033;-89
2023/05/22 08:39:19;;;;;;;4.10;3.40;;;;;;;;;;5058080;28;20024;-89
2023/05/22 08:41:46;;;;;;;3.47;3.03;;;;;;;;;;5052210;28;20059;-85
2023/05/22 08:44:12;;;;;;;4.35;3.25;;;;;;;;;;5049872;28;20068;-87
2023/05/22 08:46:40;;;;;;;10.07;3.40;;;;;;;;;;5046226;28;20045;-88
2023/05/22 08:49:07;;;;;;;4.95;3.50;;;;;;;;;;5042199;28;20044;-88
2023/05/22 08:51:37;;;;;;;4.95;3.30;;;;;;;;;;5043989;28;20033;-88
2023/05/22 08:54:07;;;;;;;6.93;3.50;;;;;;;;;;5051392;28;20033;-88
2023/05/22 08:56:36;;;;;;;5.80;3.40;;;;;;;;;;5042730;28;20106;-87
2023/05/22 08:59:02;;;;;;;6.93;3.28;;;;;;;;;;5047376;28;20100;-88
2023/05/22 09:01:29;;;;;;;5.18;3.47;;;;;;;;;;5050895;28;20036;-89
2023/05/22 09:03:59;;;;;;;6.88;3.63;;;;;;;;;;5046656;28;20037;-88
2023/05/22 09:06:24;;;;;;;6.38;3.47;;;;;;;;;;5039430;28;20036;-88
2023/05/22 09:08:50;;;;;;;6.70;3.72;;;;;;;;;;5038922;28;20038;-88
2023/05/22 09:11:16;;;;;;;5.78;4.00;;;;;;;;;;5041207;28;20458;-89
2023/05/22 09:13:43;;;;;;;6.57;3.90;;;;;;;;;;5041993;28;20025;-87
2023/05/22 09:16:12;;;;;;;18.77;3.70;;;;;;;;;;5041162;28;20049;-87
2023/05/22 09:18:38;;;;;;;86.57;6.78;;;;;;;;;;5047613;28;20136;-87
2023/05/22 09:21:05;;;;;;;12.45;3.78;;;;;;;;;;5049212;28;20053;-88
2023/05/22 09:23:31;;;;;;;4.78;3.50;;;;;;;;;;5045305;28;20085;-88
2023/05/22 09:25:58;;;;;;;5.45;3.75;;;;;;;;;;5041272;28;20055;-89
2023/05/22 09:28:24;;;;;;;5.15;3.60;;;;;;;;;;5046086;28;20036;-87
2023/05/22 09:30:52;;;;;;;6.50;4.07;;;;;;;;;;5057651;28;20029;-87
2023/05/22 09:33:18;;;;;;;8.05;3.95;;;;;;;;;;5051640;28;20052;-87
2023/05/22 09:35:49;;;;;;;323.77;15.00;;;;;;;;;;5049768;28;20071;-86
2023/05/22 09:38:15;;;;;;;6.45;3.80;;;;;;;;;;5043631;28;20048;-88
2023/05/22 09:40:41;;;;;;;46.13;5.05;;;;;;;;;;5041117;28;20125;-88
2023/05/22 09:43:07;;;;;;;5.72;3.63;;;;;;;;;;5059616;28;20060;-88
2023/05/22 09:45:37;;;;;;;93.93;6.75;;;;;;;;;;5056931;28;20080;-87
2023/05/22 09:48:08;;;;;;;242.85;11.93;;;;;;;;;;5039189;28;20037;-88
2023/05/22 09:50:34;;;;;;;44.63;5.88;;;;;;;;;;5043640;28;20087;-87
2023/05/22 09:53:02;;;;;;;8.88;4.13;;;;;;;;;;5045086;28;20566;-87
2023/05/22 09:55:27;;;;;;;5.50;4.10;;;;;;;;;;5047502;28;20041;-87
2023/05/22 09:57:54;;;;;;;7.03;4.10;;;;;;;;;;5029479;28;20049;-86
2023/05/22 10:00:22;;;;;;;8.45;4.00;;;;;;;;;;5064038;28;20040;-88
2023/05/22 10:03:02;;;;;;;6.47;3.90;;;;;;;;;;5048288;28;20099;-87
2023/05/22 10:05:31;;;;;;;56.45;6.65;;;;;;;;;;5038828;28;20041;-88
2023/05/22 10:08:05;;;;;;;8.48;4.20;;;;;;;;;;5043959;28;20025;-88
2023/05/22 10:10:31;;;;;;;9.65;4.10;;;;;;;;;;5043431;28;20044;-88
2023/05/22 10:13:00;;;;;;;6.05;3.95;;;;;;;;;;5038042;28;20029;-88
2023/05/22 10:15:26;;;;;;;6.35;3.92;;;;;;;;;;5039510;28;20052;-89
2023/05/22 10:17:53;;;;;;;5.75;3.92;;;;;;;;;;5039504;28;20029;-89
2023/05/22 10:20:19;;;;;;;5.72;4.00;;;;;;;;;;5039783;28;20041;-88
2023/05/22 10:22:47;;;;;;;6.10;3.92;;;;;;;;;;5046062;28;20041;-87
2023/05/22 10:25:13;;;;;;;8.00;4.15;;;;;;;;;;5046466;28;20033;-88
2023/05/22 10:27:42;;;;;;;10.93;6.60;;;;;;;;;;5025820;28;20102;-88
2023/05/22 10:30:35;;;;;;;9.90;6.95;;;;;;;;;;5040782;28;20503;-89
2023/05/22 10:33:30;;;;;;;7.13;4.32;;;;;;;;;;5038576;28;20104;-88
2023/05/22 10:36:01;;;;;;;5.80;3.85;;;;;;;;;;5036446;28;20034;-87
2023/05/22 10:38:45;;;;;;;6.05;3.92;;;;;;;;;;5040147;28;20041;-87
2023/05/22 10:41:11;;;;;;;5.13;4.15;;;;;;;;;;5043697;28;20044;-88
2023/05/22 10:43:43;;;;;;;5.07;3.97;;;;;;;;;;5042434;28;20076;-88
2023/05/22 10:46:11;;;;;;;6.05;4.15;;;;;;;;;;5040543;28;20091;-87
2023/05/22 10:48:46;;;;;;;6.25;4.50;;;;;;;;;;5039132;28;20037;-88
2023/05/22 10:51:19;;;;;;;5.53;3.88;;;;;;;;;;5038429;28;20029;-88
2023/05/22 10:54:08;;;;;;;10.15;4.43;;;;;;;;;;5038002;28;20039;-88
2023/05/22 10:56:34;;;;;;;7.88;4.25;;;;;;;;;;5037618;28;20052;-88
2023/05/22 10:59:03;;;;;;;6.20;3.90;;;;;;;;;;5038168;28;20116;-88
2023/05/22 11:01:29;;;;;;;5.90;3.90;;;;;;;;;;5038811;28;20033;-88
2023/05/22 11:04:05;;;;;;;4.70;4.10;;;;;;;;;;5038891;28;20123;-87
2023/05/22 11:06:46;;;;;;;4.93;4.03;;;;;;;;;;5038575;28;20097;-88
2023/05/22 11:09:32;;;;;;;6.03;4.00;;;;;;;;;;5034242;28;20041;-88
2023/05/22 11:12:23;;;;;;;6.22;3.80;;;;;;;;;;5029349;28;20143;-87
2023/05/22 11:14:57;;;;;;;6.15;4.00;;;;;;;;;;5038700;28;20044;-88
2023/05/22 11:17:26;;;;;;;6.35;3.97;;;;;;;;;;5041768;28;20141;-89
2023/05/22 11:20:05;;;;;;;6.57;4.35;;;;;;;;;;5039856;28;20118;-88
2023/05/22 11:22:39;;;;;;;6.10;4.25;;;;;;;;;;5038312;28;20065;-88
2023/05/22 11:25:35;;;;;;;6.57;4.18;;;;;;;;;;5051479;28;20123;-88
2023/05/22 11:28:05;;;;;;;6.65;4.18;;;;;;;;;;5047224;28;20140;-89
2023/05/22 11:30:30;;;;;;;6.97;4.25;;;;;;;;;;5043671;28;20095;-88
2023/05/22 11:33:00;;;;;;;6.25;4.10;;;;;;;;;;5040373;28;20041;-87
2023/05/22 11:35:27;;;;;;;7.05;4.20;;;;;;;;;;5038363;28;20027;-89
2023/05/22 11:37:54;;;;;;;5.68;4.32;;;;;;;;;;5041752;28;20045;-88
2023/05/22 11:40:24;;;;;;;7.22;4.30;;;;;;;;;;5040483;28;20037;-87
2023/05/22 11:42:51;;;;;;;4.88;4.20;;;;;;;;;;5051487;28;20037;-86
2023/05/22 11:45:17;;;;;;;9.10;3.90;;;;;;;;;;5021034;28;20045;-87
2023/05/22 11:47:43;;;;;;;7.93;4.40;;;;;;;;;;5045930;28;20049;-86
2023/05/22 11:50:10;;;;;;;7.55;4.20;;;;;;;;;;5043081;28;20041;-85
2023/05/22 11:52:37;;;;;;;7.03;4.50;;;;;;;;;;5040439;28;20048;-86
2023/05/22 11:55:07;;;;;;;5.68;4.05;;;;;;;;;;5041398;28;20428;-87
2023/05/22 11:57:33;;;;;;;6.53;4.50;;;;;;;;;;5036909;28;20097;-87
2023/05/22 12:00:00;;;;;;;7.75;4.15;;;;;;;;;;5020110;28;20045;-87
2023/05/22 12:02:25;;;;;;;7.93;4.43;;;;;;;;;;5038039;28;20109;-86
2023/05/22 12:04:55;;;;;;;7.40;4.30;;;;;;;;;;5034632;28;20144;-87
2023/05/22 12:07:21;;;;;;;5.43;3.90;;;;;;;;;;5034943;28;20033;-85
2023/05/22 12:09:47;;;;;;;6.32;4.15;;;;;;;;;;5034539;28;20602;-86
2023/05/22 12:12:15;;;;;;;7.95;4.63;;;;;;;;;;5034510;28;20087;-84
2023/05/22 12:14:44;;;;;;;7.25;4.38;;;;;;;;;;5033788;28;20033;-83
2023/05/22 12:17:12;;;;;;;110.50;9.27;;;;;;;;;;5033319;28;20037;-85
2023/05/22 12:19:42;;;;;;;56.88;6.25;;;;;;;;;;5033205;28;20391;-85
2023/05/22 12:22:08;;;;;;;51.13;6.07;;;;;;;;;;5016532;28;20032;-85
2023/05/22 12:24:39;;;;;;;7.10;4.30;;;;;;;;;;5051181;28;20048;-86
2023/05/22 12:27:08;;;;;;;6.38;4.18;;;;;;;;;;5045667;28;20037;-84
2023/05/22 12:29:33;;;;;;;6.03;4.45;;;;;;;;;;5043068;28;20076;-86
2023/05/22 12:32:03;;;;;;;6.38;4.30;;;;;;;;;;5038538;28;20061;-85
2023/05/22 12:34:33;;;;;;;5.07;4.20;;;;;;;;;;5035934;28;20021;-84
2023/05/22 12:36:59;;;;;;;6.30;4.30;;;;;;;;;;5034464;28;20033;-85
2023/05/22 12:39:25;;;;;;;8.60;4.43;;;;;;;;;;5034806;28;20037;-85
2023/05/22 12:41:50;;;;;;;6.45;4.50;;;;;;;;;;5035143;28;20364;-86
2023/05/22 12:44:16;;;;;;;6.00;4.20;;;;;;;;;;5033125;28;20514;-86
2023/05/22 12:46:42;;;;;;;8.45;4.13;;;;;;;;;;5034157;28;20029;-86
2023/05/22 12:49:08;;;;;;;6.22;4.40;;;;;;;;;;5051585;28;20041;-83
2023/05/22 12:51:34;;;;;;;7.05;4.35;;;;;;;;;;5051778;28;20041;-85
2023/05/22 12:54:02;;;;;;;5.20;4.00;;;;;;;;;;5048834;28;20044;-86
2023/05/22 12:56:29;;;;;;;6.90;4.13;;;;;;;;;;5036965;28;20034;-84
2023/05/22 12:58:56;;;;;;;47.97;5.55;;;;;;;;;;5035622;28;20041;-84
2023/05/22 13:01:23;;;;;;;8.52;4.20;;;;;;;;;;5049261;28;20478;-85
2023/05/22 13:03:51;;;;;;;29.65;5.22;;;;;;;;;;5053458;28;20199;-87
2023/05/22 13:06:17;;;;;;;6.85;4.00;;;;;;;;;;5048080;28;20025;-85
2023/05/22 13:08:43;;;;;;;6.80;4.55;;;;;;;;;;5045060;28;20104;-85
2023/05/22 13:11:10;;;;;;;6.32;4.45;;;;;;;;;;5040015;28;20463;-85
2023/05/22 13:13:36;;;;;;;37.95;6.10;;;;;;;;;;5036097;28;20026;-85
2023/05/22 13:16:02;;;;;;;7.95;4.32;;;;;;;;;;5035329;28;20036;-85
2023/05/22 13:18:27;;;;;;;7.22;4.30;;;;;;;;;;5037282;28;20105;-85
2023/05/22 13:20:55;;;;;;;10.75;4.70;;;;;;;;;;5036758;28;20120;-86
2023/05/22 13:23:20;;;;;;;8.00;4.20;;;;;;;;;;5036562;28;20065;-85
2023/05/22 13:25:46;;;;;;;7.30;4.10;;;;;;;;;;5046733;28;20036;-86
2023/05/22 13:28:11;;;;;;;6.00;3.92;;;;;;;;;;5036114;28;20120;-85
2023/05/22 13:30:37;;;;;;;6.43;4.22;;;;;;;;;;5048828;28;20491;-84
2023/05/22 13:33:02;;;;;;;5.53;4.22;;;;;;;;;;5043679;28;20108;-85
2023/05/22 13:35:28;;;;;;;6.00;4.10;;;;;;;;;;5040948;28;20032;-85
2023/05/22 13:37:53;;;;;;;22.30;5.13;;;;;;;;;;5039507;28;20519;-86
2023/05/22 13:40:19;;;;;;;7.35;4.38;;;;;;;;;;5036804;28;20034;-86
2023/05/22 13:42:45;;;;;;;5.35;4.25;;;;;;;;;;5036556;28;20072;-86
2023/05/22 13:45:11;;;;;;;6.93;4.30;;;;;;;;;;5041748;28;20065;-86
2023/05/22 13:47:36;;;;;;;7.47;4.25;;;;;;;;;;5041182;28;20025;-85
2023/05/22 13:50:02;;;;;;;7.38;4.35;;;;;;;;;;5038465;28;20036;-84
2023/05/22 13:52:27;;;;;;;6.60;4.25;;;;;;;;;;5034485;28;20048;-85
2023/05/22 13:54:54;;;;;;;25.58;5.10;;;;;;;;;;5033860;28;20037;-84
2023/05/22 13:57:19;;;;;;;180.25;11.18;;;;;;;;;;5034425;28;20030;-85
2023/05/22 13:59:45;;;;;;;7.53;4.50;;;;;;;;;;5034280;28;20379;-85
2023/05/22 14:02:10;;;;;;;6.03;4.43;;;;;;;;;;5036947;28;20658;-85
2023/05/22 14:04:36;;;;;;;6.05;4.28;;;;;;;;;;5032786;28;20049;-85
2023/05/22 14:07:01;;;;;;;6.95;4.63;;;;;;;;;;5036618;28;20063;-86
2023/05/22 14:09:27;;;;;;;7.15;3.95;;;;;;;;;;5036169;28;20052;-86
2023/05/22 14:11:52;;;;;;;6.82;3.95;;;;;;;;;;5036361;28;20095;-86
2023/05/22 14:14:22;;;;;;;5.22;4.10;;;;;;;;;;5035572;28;20034;-85
2023/05/22 14:16:51;;;;;;;6.90;4.10;;;;;;;;;;5040220;28;20066;-85
2023/05/22 14:19:17;;;;;;;5.28;4.18;;;;;;;;;;5038250;28;20063;-86
2023/05/22 14:21:44;;;;;;;8.18;4.20;;;;;;;;;;5036056;28;20479;-85
2023/05/22 14:24:10;;;;;;;5.50;4.20;;;;;;;;;;5036906;28;20034;-86
2023/05/22 14:26:35;;;;;;;5.70;4.10;;;;;;;;;;5037257;28;20048;-86
2023/05/22 14:29:01;;;;;;;7.63;4.30;;;;;;;;;;5039130;28;20113;-87
2023/05/22 14:31:27;;;;;;;5.97;4.07;;;;;;;;;;5045136;28;20056;-89
2023/05/22 14:33:53;;;;;;;5.05;4.20;;;;;;;;;;5045355;28;20112;-87
2023/05/22 14:36:19;;;;;;;61.72;45.03;;;;;;;;;;5038017;28;20065;-88
2023/05/22 14:38:45;;;;;;;7.38;4.20;;;;;;;;;;5054478;28;20037;-89
2023/05/22 14:41:10;;;;;;;6.47;4.18;;;;;;;;;;5052213;28;20076;-88
2023/05/22 14:43:36;;;;;;;4.80;4.00;;;;;;;;;;5049410;28;20045;-88
2023/05/22 14:46:01;;;;;;;5.53;4.07;;;;;;;;;;5046654;28;20697;-88
2023/05/22 14:48:28;;;;;;;6.50;4.07;;;;;;;;;;5042674;28;20025;-87